sensor_id;sensor_type;location;lat;lon;timestamp;P1;durP1;ratioP1;P2;durP2;ratioP2
7150;SDS011;3617;48.836;9.172;2022-12-07T00:00:28;11.10;;;6.93;;
7150;SDS011;3617;48.836;9.172;2022-12-07T00:02:54;8.70;;;6.40;;
7150;SDS011;3617;48.836;9.172;2022-12-07T00:05:19;12.00;;;7.50;;
7150;SDS011;3617;48.836;9.172;2022-12-07T00:07:46;10.57;;;6.60;;
7150;SDS011;3617;48.836;9.172;2022-12-07T00:10:12;11.90;;;6.77;;
7150;SDS011;3617;48.836;9.172;2022-12-07T00:12:38;11.80;;;6.77;;
7150;SDS011;3617;48.836;9.172;2022-12-07T00:15:04;11.57;;;7.20;;
7150;SDS011;3617;48.836;9.172;2022-12-07T00:17:30;10.30;;;6.13;;
7150;SDS011;3617;48.836;9.172;2022-12-07T00:19:56;12.63;;;7.50;;
7150;SDS011;3617;48.836;9.172;2022-12-07T00:22:22;10.80;;;6.90;;
7150;SDS011;3617;48.836;9.172;2022-12-07T00:24:48;11.07;;;6.57;;
7150;SDS011;3617;48.836;9.172;2022-12-07T00:27:14;12.53;;;7.00;;
7150;SDS011;3617;48.836;9.172;2022-12-07T00:29:40;13.00;;;7.70;;
7150;SDS011;3617;48.836;9.172;2022-12-07T00:32:06;12.13;;;7.13;;
7150;SDS011;3617;48.836;9.172;2022-12-07T00:34:32;11.20;;;7.43;;
7150;SDS011;3617;48.836;9.172;2022-12-07T00:36:58;11.13;;;7.53;;
7150;SDS011;3617;48.836;9.172;2022-12-07T00:39:24;12.87;;;7.50;;
7150;SDS011;3617;48.836;9.172;2022-12-07T00:41:50;11.30;;;7.07;;
7150;SDS011;3617;48.836;9.172;2022-12-07T00:44:16;10.90;;;6.93;;
7150;SDS011;3617;48.836;9.172;2022-12-07T00:46:42;10.30;;;6.87;;
7150;SDS011;3617;48.836;9.172;2022-12-07T00:49:10;12.37;;;7.30;;
7150;SDS011;3617;48.836;9.172;2022-12-07T00:51:36;11.90;;;7.37;;
7150;SDS011;3617;48.836;9.172;2022-12-07T00:54:02;15.30;;;7.77;;
7150;SDS011;3617;48.836;9.172;2022-12-07T00:56:28;12.00;;;7.73;;
7150;SDS011;3617;48.836;9.172;2022-12-07T01:01:21;12.70;;;6.87;;
7150;SDS011;3617;48.836;9.172;2022-12-07T01:03:47;14.57;;;7.93;;
7150;SDS011;3617;48.836;9.172;2022-12-07T01:06:14;12.60;;;8.03;;
7150;SDS011;3617;48.836;9.172;2022-12-07T01:08:41;11.53;;;6.87;;
7150;SDS011;3617;48.836;9.172;2022-12-07T01:11:07;12.70;;;8.03;;
7150;SDS011;3617;48.836;9.172;2022-12-07T01:13:35;14.30;;;7.80;;
7150;SDS011;3617;48.836;9.172;2022-12-07T01:16:02;17.20;;;8.20;;
7150;SDS011;3617;48.836;9.172;2022-12-07T01:18:29;11.33;;;7.30;;
7150;SDS011;3617;48.836;9.172;2022-12-07T01:20:59;11.10;;;7.87;;
7150;SDS011;3617;48.836;9.172;2022-12-07T01:23:25;11.13;;;7.43;;
7150;SDS011;3617;48.836;9.172;2022-12-07T01:25:55;12.57;;;7.67;;
7150;SDS011;3617;48.836;9.172;2022-12-07T01:28:22;13.03;;;7.70;;
7150;SDS011;3617;48.836;9.172;2022-12-07T01:30:55;14.37;;;7.97;;
7150;SDS011;3617;48.836;9.172;2022-12-07T01:33:21;12.23;;;7.57;;
7150;SDS011;3617;48.836;9.172;2022-12-07T01:35:47;12.57;;;7.57;;
7150;SDS011;3617;48.836;9.172;2022-12-07T01:38:13;13.73;;;7.73;;
7150;SDS011;3617;48.836;9.172;2022-12-07T01:40:39;11.40;;;7.40;;
7150;SDS011;3617;48.836;9.172;2022-12-07T01:43:16;12.60;;;7.40;;
7150;SDS011;3617;48.836;9.172;2022-12-07T01:45:43;11.87;;;7.50;;
7150;SDS011;3617;48.836;9.172;2022-12-07T01:48:09;13.87;;;7.37;;
7150;SDS011;3617;48.836;9.172;2022-12-07T01:50:36;10.23;;;7.03;;
7150;SDS011;3617;48.836;9.172;2022-12-07T01:53:04;13.10;;;7.87;;
7150;SDS011;3617;48.836;9.172;2022-12-07T01:55:32;12.63;;;7.80;;
7150;SDS011;3617;48.836;9.172;2022-12-07T01:57:58;12.93;;;7.33;;
7150;SDS011;3617;48.836;9.172;2022-12-07T02:00:24;12.57;;;7.47;;
7150;SDS011;3617;48.836;9.172;2022-12-07T02:05:25;12.23;;;7.37;;
7150;SDS011;3617;48.836;9.172;2022-12-07T02:07:53;10.93;;;7.40;;
7150;SDS011;3617;48.836;9.172;2022-12-07T02:10:27;11.30;;;7.07;;
7150;SDS011;3617;48.836;9.172;2022-12-07T02:13:04;12.70;;;7.47;;
7150;SDS011;3617;48.836;9.172;2022-12-07T02:18:25;12.10;;;7.20;;
7150;SDS011;3617;48.836;9.172;2022-12-07T02:21:12;11.27;;;7.53;;
7150;SDS011;3617;48.836;9.172;2022-12-07T02:23:53;12.73;;;7.17;;
7150;SDS011;3617;48.836;9.172;2022-12-07T02:29:21;11.30;;;7.10;;
7150;SDS011;3617;48.836;9.172;2022-12-07T02:32:32;11.40;;;6.70;;
7150;SDS011;3617;48.836;9.172;2022-12-07T02:37:11;12.47;;;7.37;;
7150;SDS011;3617;48.836;9.172;2022-12-07T02:39:42;13.37;;;7.10;;
7150;SDS011;3617;48.836;9.172;2022-12-07T02:42:15;11.70;;;6.90;;
7150;SDS011;3617;48.836;9.172;2022-12-07T02:44:43;12.00;;;7.30;;
7150;SDS011;3617;48.836;9.172;2022-12-07T02:47:10;14.03;;;8.00;;
7150;SDS011;3617;48.836;9.172;2022-12-07T02:49:38;12.13;;;7.97;;
7150;SDS011;3617;48.836;9.172;2022-12-07T02:52:04;12.03;;;6.97;;
7150;SDS011;3617;48.836;9.172;2022-12-07T02:54:31;9.57;;;7.03;;
7150;SDS011;3617;48.836;9.172;2022-12-07T02:57:00;10.37;;;6.70;;
7150;SDS011;3617;48.836;9.172;2022-12-07T03:06:53;11.77;;;7.17;;
7150;SDS011;3617;48.836;9.172;2022-12-07T03:09:27;10.90;;;7.50;;
7150;SDS011;3617;48.836;9.172;2022-12-07T03:11:57;11.47;;;6.80;;
7150;SDS011;3617;48.836;9.172;2022-12-07T03:14:29;10.30;;;6.47;;
7150;SDS011;3617;48.836;9.172;2022-12-07T03:17:01;11.57;;;6.27;;
7150;SDS011;3617;48.836;9.172;2022-12-07T03:19:30;10.63;;;6.30;;
7150;SDS011;3617;48.836;9.172;2022-12-07T03:21:58;13.17;;;7.03;;
7150;SDS011;3617;48.836;9.172;2022-12-07T03:24:26;12.37;;;7.33;;
7150;SDS011;3617;48.836;9.172;2022-12-07T03:27:01;12.67;;;6.93;;
7150;SDS011;3617;48.836;9.172;2022-12-07T03:29:31;12.30;;;7.37;;
7150;SDS011;3617;48.836;9.172;2022-12-07T03:34:46;12.03;;;6.90;;
7150;SDS011;3617;48.836;9.172;2022-12-07T03:37:17;13.07;;;7.33;;
7150;SDS011;3617;48.836;9.172;2022-12-07T03:42:29;10.97;;;6.53;;
7150;SDS011;3617;48.836;9.172;2022-12-07T03:44:56;10.53;;;6.60;;
7150;SDS011;3617;48.836;9.172;2022-12-07T03:49:59;11.90;;;6.80;;
7150;SDS011;3617;48.836;9.172;2022-12-07T03:55:12;11.23;;;6.23;;
7150;SDS011;3617;48.836;9.172;2022-12-07T03:57:41;11.60;;;6.83;;
7150;SDS011;3617;48.836;9.172;2022-12-07T04:00:09;11.40;;;7.03;;
7150;SDS011;3617;48.836;9.172;2022-12-07T04:02:35;12.50;;;7.57;;
7150;SDS011;3617;48.836;9.172;2022-12-07T04:05:02;13.27;;;7.47;;
7150;SDS011;3617;48.836;9.172;2022-12-07T04:07:28;15.53;;;8.33;;
7150;SDS011;3617;48.836;9.172;2022-12-07T04:09:54;13.47;;;8.33;;
7150;SDS011;3617;48.836;9.172;2022-12-07T04:12:21;12.83;;;7.97;;
7150;SDS011;3617;48.836;9.172;2022-12-07T04:14:47;13.50;;;8.00;;
7150;SDS011;3617;48.836;9.172;2022-12-07T04:17:13;14.73;;;8.77;;
7150;SDS011;3617;48.836;9.172;2022-12-07T04:19:39;13.33;;;7.67;;
7150;SDS011;3617;48.836;9.172;2022-12-07T04:22:05;11.87;;;7.60;;
7150;SDS011;3617;48.836;9.172;2022-12-07T04:24:31;15.73;;;8.73;;
7150;SDS011;3617;48.836;9.172;2022-12-07T04:26:57;13.70;;;7.53;;
7150;SDS011;3617;48.836;9.172;2022-12-07T04:29:23;12.93;;;6.83;;
7150;SDS011;3617;48.836;9.172;2022-12-07T04:31:50;10.63;;;6.60;;
7150;SDS011;3617;48.836;9.172;2022-12-07T04:34:16;12.27;;;7.63;;
7150;SDS011;3617;48.836;9.172;2022-12-07T04:36:43;13.83;;;7.60;;
7150;SDS011;3617;48.836;9.172;2022-12-07T04:39:13;14.87;;;7.57;;
7150;SDS011;3617;48.836;9.172;2022-12-07T04:41:42;10.77;;;7.10;;
7150;SDS011;3617;48.836;9.172;2022-12-07T04:44:08;8.97;;;6.33;;
7150;SDS011;3617;48.836;9.172;2022-12-07T04:46:34;12.37;;;7.33;;
7150;SDS011;3617;48.836;9.172;2022-12-07T04:49:00;11.13;;;6.40;;
7150;SDS011;3617;48.836;9.172;2022-12-07T04:51:27;10.17;;;6.80;;
7150;SDS011;3617;48.836;9.172;2022-12-07T04:53:54;20.57;;;10.40;;
7150;SDS011;3617;48.836;9.172;2022-12-07T04:56:20;26.10;;;13.37;;
7150;SDS011;3617;48.836;9.172;2022-12-07T04:58:47;15.13;;;8.50;;
7150;SDS011;3617;48.836;9.172;2022-12-07T05:01:13;13.80;;;7.40;;
7150;SDS011;3617;48.836;9.172;2022-12-07T05:03:40;29.87;;;14.40;;
7150;SDS011;3617;48.836;9.172;2022-12-07T05:06:06;35.70;;;17.77;;
7150;SDS011;3617;48.836;9.172;2022-12-07T05:08:32;16.97;;;9.40;;
7150;SDS011;3617;48.836;9.172;2022-12-07T05:10:59;15.10;;;7.80;;
7150;SDS011;3617;48.836;9.172;2022-12-07T05:13:25;12.27;;;7.33;;
7150;SDS011;3617;48.836;9.172;2022-12-07T05:15:51;15.60;;;7.47;;
7150;SDS011;3617;48.836;9.172;2022-12-07T05:18:17;13.33;;;7.70;;
7150;SDS011;3617;48.836;9.172;2022-12-07T05:20:43;13.60;;;7.03;;
7150;SDS011;3617;48.836;9.172;2022-12-07T05:23:10;12.40;;;7.27;;
7150;SDS011;3617;48.836;9.172;2022-12-07T05:25:36;10.80;;;6.63;;
7150;SDS011;3617;48.836;9.172;2022-12-07T05:28:02;11.50;;;6.47;;
7150;SDS011;3617;48.836;9.172;2022-12-07T05:30:29;11.30;;;6.67;;
7150;SDS011;3617;48.836;9.172;2022-12-07T05:32:55;11.73;;;7.07;;
7150;SDS011;3617;48.836;9.172;2022-12-07T05:35:21;11.17;;;6.97;;
7150;SDS011;3617;48.836;9.172;2022-12-07T05:37:47;10.97;;;6.87;;
7150;SDS011;3617;48.836;9.172;2022-12-07T05:40:14;12.20;;;6.90;;
7150;SDS011;3617;48.836;9.172;2022-12-07T05:42:40;13.70;;;7.47;;
7150;SDS011;3617;48.836;9.172;2022-12-07T05:45:07;12.90;;;6.63;;
7150;SDS011;3617;48.836;9.172;2022-12-07T05:47:33;11.63;;;7.27;;
7150;SDS011;3617;48.836;9.172;2022-12-07T05:49:59;13.97;;;7.03;;
7150;SDS011;3617;48.836;9.172;2022-12-07T05:52:25;13.53;;;7.23;;
7150;SDS011;3617;48.836;9.172;2022-12-07T05:54:51;12.63;;;7.17;;
7150;SDS011;3617;48.836;9.172;2022-12-07T05:57:17;12.63;;;7.73;;
7150;SDS011;3617;48.836;9.172;2022-12-07T05:59:43;14.20;;;7.30;;
7150;SDS011;3617;48.836;9.172;2022-12-07T06:02:11;15.67;;;6.90;;
7150;SDS011;3617;48.836;9.172;2022-12-07T06:04:41;13.97;;;7.47;;
7150;SDS011;3617;48.836;9.172;2022-12-07T06:07:08;13.80;;;8.07;;
7150;SDS011;3617;48.836;9.172;2022-12-07T06:09:34;16.60;;;8.33;;
7150;SDS011;3617;48.836;9.172;2022-12-07T06:12:01;14.43;;;7.93;;
7150;SDS011;3617;48.836;9.172;2022-12-07T06:14:46;19.43;;;9.87;;
7150;SDS011;3617;48.836;9.172;2022-12-07T06:17:12;19.30;;;10.27;;
7150;SDS011;3617;48.836;9.172;2022-12-07T06:19:38;15.93;;;9.73;;
7150;SDS011;3617;48.836;9.172;2022-12-07T06:22:04;16.27;;;8.50;;
7150;SDS011;3617;48.836;9.172;2022-12-07T06:24:31;13.37;;;7.93;;
7150;SDS011;3617;48.836;9.172;2022-12-07T06:26:57;15.93;;;8.83;;
7150;SDS011;3617;48.836;9.172;2022-12-07T06:29:23;14.73;;;7.57;;
7150;SDS011;3617;48.836;9.172;2022-12-07T06:31:49;14.87;;;7.43;;
7150;SDS011;3617;48.836;9.172;2022-12-07T06:34:16;14.83;;;8.50;;
7150;SDS011;3617;48.836;9.172;2022-12-07T06:36:42;12.57;;;7.30;;
7150;SDS011;3617;48.836;9.172;2022-12-07T06:39:09;11.53;;;7.80;;
7150;SDS011;3617;48.836;9.172;2022-12-07T06:41:36;13.67;;;6.73;;
7150;SDS011;3617;48.836;9.172;2022-12-07T06:44:03;15.30;;;7.53;;
7150;SDS011;3617;48.836;9.172;2022-12-07T06:46:29;12.60;;;6.73;;
7150;SDS011;3617;48.836;9.172;2022-12-07T06:48:55;9.03;;;5.80;;
7150;SDS011;3617;48.836;9.172;2022-12-07T06:51:21;9.77;;;6.63;;
7150;SDS011;3617;48.836;9.172;2022-12-07T06:53:47;12.97;;;6.33;;
7150;SDS011;3617;48.836;9.172;2022-12-07T06:56:13;12.33;;;6.10;;
7150;SDS011;3617;48.836;9.172;2022-12-07T06:58:39;9.37;;;5.53;;
7150;SDS011;3617;48.836;9.172;2022-12-07T07:01:10;9.33;;;6.00;;
7150;SDS011;3617;48.836;9.172;2022-12-07T07:03:36;11.27;;;6.13;;
7150;SDS011;3617;48.836;9.172;2022-12-07T07:06:02;10.57;;;6.60;;
7150;SDS011;3617;48.836;9.172;2022-12-07T07:08:28;9.23;;;6.00;;
7150;SDS011;3617;48.836;9.172;2022-12-07T07:10:54;12.87;;;6.40;;
7150;SDS011;3617;48.836;9.172;2022-12-07T07:13:20;8.03;;;5.10;;
7150;SDS011;3617;48.836;9.172;2022-12-07T07:15:46;12.67;;;5.10;;
7150;SDS011;3617;48.836;9.172;2022-12-07T07:18:12;10.97;;;5.37;;
7150;SDS011;3617;48.836;9.172;2022-12-07T07:20:38;10.57;;;5.23;;
7150;SDS011;3617;48.836;9.172;2022-12-07T07:23:04;9.90;;;5.90;;
7150;SDS011;3617;48.836;9.172;2022-12-07T07:25:31;6.77;;;5.03;;
7150;SDS011;3617;48.836;9.172;2022-12-07T07:27:57;7.97;;;5.83;;
7150;SDS011;3617;48.836;9.172;2022-12-07T07:30:23;10.60;;;4.93;;
7150;SDS011;3617;48.836;9.172;2022-12-07T07:32:49;11.03;;;5.50;;
7150;SDS011;3617;48.836;9.172;2022-12-07T07:35:15;8.47;;;5.27;;
7150;SDS011;3617;48.836;9.172;2022-12-07T07:37:41;9.10;;;5.30;;
7150;SDS011;3617;48.836;9.172;2022-12-07T07:40:08;7.87;;;4.73;;
7150;SDS011;3617;48.836;9.172;2022-12-07T07:42:34;7.03;;;4.57;;
7150;SDS011;3617;48.836;9.172;2022-12-07T07:45:01;7.33;;;4.57;;
7150;SDS011;3617;48.836;9.172;2022-12-07T07:47:27;7.67;;;4.63;;
7150;SDS011;3617;48.836;9.172;2022-12-07T07:49:54;7.03;;;4.80;;
7150;SDS011;3617;48.836;9.172;2022-12-07T07:52:20;9.33;;;4.70;;
7150;SDS011;3617;48.836;9.172;2022-12-07T07:54:46;6.43;;;4.70;;
7150;SDS011;3617;48.836;9.172;2022-12-07T07:57:12;8.20;;;4.67;;
7150;SDS011;3617;48.836;9.172;2022-12-07T07:59:38;8.80;;;5.03;;
7150;SDS011;3617;48.836;9.172;2022-12-07T08:02:04;8.17;;;4.83;;
7150;SDS011;3617;48.836;9.172;2022-12-07T08:04:30;6.07;;;4.23;;
7150;SDS011;3617;48.836;9.172;2022-12-07T08:06:56;7.33;;;4.67;;
7150;SDS011;3617;48.836;9.172;2022-12-07T08:09:22;5.97;;;4.53;;
7150;SDS011;3617;48.836;9.172;2022-12-07T08:11:48;5.73;;;3.97;;
7150;SDS011;3617;48.836;9.172;2022-12-07T08:14:14;7.27;;;4.70;;
7150;SDS011;3617;48.836;9.172;2022-12-07T08:16:40;7.70;;;4.57;;
7150;SDS011;3617;48.836;9.172;2022-12-07T08:19:06;6.57;;;4.83;;
7150;SDS011;3617;48.836;9.172;2022-12-07T08:21:32;6.23;;;4.33;;
7150;SDS011;3617;48.836;9.172;2022-12-07T08:23:58;7.37;;;4.40;;
7150;SDS011;3617;48.836;9.172;2022-12-07T08:26:24;6.37;;;4.20;;
7150;SDS011;3617;48.836;9.172;2022-12-07T08:28:52;9.03;;;4.43;;
7150;SDS011;3617;48.836;9.172;2022-12-07T08:31:18;6.40;;;3.80;;
7150;SDS011;3617;48.836;9.172;2022-12-07T08:33:44;10.17;;;4.03;;
7150;SDS011;3617;48.836;9.172;2022-12-07T08:36:11;6.87;;;4.07;;
7150;SDS011;3617;48.836;9.172;2022-12-07T08:38:38;8.30;;;4.30;;
7150;SDS011;3617;48.836;9.172;2022-12-07T08:41:05;7.43;;;4.53;;
7150;SDS011;3617;48.836;9.172;2022-12-07T08:43:32;6.23;;;3.90;;
7150;SDS011;3617;48.836;9.172;2022-12-07T08:48:30;8.83;;;4.80;;
7150;SDS011;3617;48.836;9.172;2022-12-07T08:50:56;13.97;;;5.53;;
7150;SDS011;3617;48.836;9.172;2022-12-07T08:53:23;7.57;;;4.27;;
7150;SDS011;3617;48.836;9.172;2022-12-07T08:55:49;7.27;;;4.33;;
7150;SDS011;3617;48.836;9.172;2022-12-07T08:58:15;6.87;;;4.40;;
7150;SDS011;3617;48.836;9.172;2022-12-07T09:00:42;7.50;;;4.37;;
7150;SDS011;3617;48.836;9.172;2022-12-07T09:03:08;8.03;;;4.30;;
7150;SDS011;3617;48.836;9.172;2022-12-07T09:05:34;7.97;;;4.20;;
7150;SDS011;3617;48.836;9.172;2022-12-07T09:08:01;8.07;;;4.17;;
7150;SDS011;3617;48.836;9.172;2022-12-07T09:10:28;6.50;;;3.67;;
7150;SDS011;3617;48.836;9.172;2022-12-07T09:12:54;5.70;;;3.80;;
7150;SDS011;3617;48.836;9.172;2022-12-07T09:15:20;10.37;;;4.50;;
7150;SDS011;3617;48.836;9.172;2022-12-07T09:17:46;5.43;;;3.90;;
7150;SDS011;3617;48.836;9.172;2022-12-07T09:20:12;6.23;;;4.20;;
7150;SDS011;3617;48.836;9.172;2022-12-07T09:22:38;8.37;;;4.63;;
7150;SDS011;3617;48.836;9.172;2022-12-07T09:25:04;10.87;;;4.53;;
7150;SDS011;3617;48.836;9.172;2022-12-07T09:27:30;6.47;;;3.83;;
7150;SDS011;3617;48.836;9.172;2022-12-07T09:29:56;7.87;;;4.13;;
7150;SDS011;3617;48.836;9.172;2022-12-07T09:32:22;6.33;;;4.13;;
7150;SDS011;3617;48.836;9.172;2022-12-07T09:34:49;10.30;;;4.07;;
7150;SDS011;3617;48.836;9.172;2022-12-07T09:37:15;8.70;;;4.17;;
7150;SDS011;3617;48.836;9.172;2022-12-07T09:39:41;7.47;;;4.00;;
7150;SDS011;3617;48.836;9.172;2022-12-07T09:42:07;5.40;;;3.40;;
7150;SDS011;3617;48.836;9.172;2022-12-07T09:44:35;4.43;;;3.07;;
7150;SDS011;3617;48.836;9.172;2022-12-07T09:47:01;5.00;;;3.37;;
7150;SDS011;3617;48.836;9.172;2022-12-07T09:49:28;4.60;;;3.73;;
7150;SDS011;3617;48.836;9.172;2022-12-07T09:52:00;3.77;;;2.87;;
7150;SDS011;3617;48.836;9.172;2022-12-07T09:54:27;4.63;;;3.00;;
7150;SDS011;3617;48.836;9.172;2022-12-07T09:56:54;4.40;;;2.83;;
7150;SDS011;3617;48.836;9.172;2022-12-07T09:59:20;6.57;;;3.10;;
7150;SDS011;3617;48.836;9.172;2022-12-07T10:01:47;7.17;;;3.10;;
7150;SDS011;3617;48.836;9.172;2022-12-07T10:04:24;5.23;;;3.40;;
7150;SDS011;3617;48.836;9.172;2022-12-07T10:06:51;5.43;;;3.33;;
7150;SDS011;3617;48.836;9.172;2022-12-07T10:09:18;4.10;;;3.33;;
7150;SDS011;3617;48.836;9.172;2022-12-07T10:14:30;7.80;;;3.90;;
7150;SDS011;3617;48.836;9.172;2022-12-07T10:16:57;5.10;;;3.60;;
7150;SDS011;3617;48.836;9.172;2022-12-07T10:19:24;5.10;;;3.43;;
7150;SDS011;3617;48.836;9.172;2022-12-07T10:24:35;4.53;;;3.30;;
7150;SDS011;3617;48.836;9.172;2022-12-07T10:27:04;7.00;;;3.80;;
7150;SDS011;3617;48.836;9.172;2022-12-07T10:29:34;7.77;;;3.83;;
7150;SDS011;3617;48.836;9.172;2022-12-07T10:34:39;5.83;;;3.50;;
7150;SDS011;3617;48.836;9.172;2022-12-07T10:39:43;6.90;;;3.90;;
7150;SDS011;3617;48.836;9.172;2022-12-07T10:44:49;10.43;;;3.90;;
7150;SDS011;3617;48.836;9.172;2022-12-07T11:00:24;6.03;;;3.50;;
7150;SDS011;3617;48.836;9.172;2022-12-07T11:03:15;3.83;;;2.60;;
7150;SDS011;3617;48.836;9.172;2022-12-07T11:10:48;6.67;;;2.87;;
7150;SDS011;3617;48.836;9.172;2022-12-07T11:18:37;3.43;;;2.53;;
7150;SDS011;3617;48.836;9.172;2022-12-07T11:31:36;2.70;;;2.43;;
7150;SDS011;3617;48.836;9.172;2022-12-07T11:34:10;5.23;;;3.10;;
7150;SDS011;3617;48.836;9.172;2022-12-07T11:36:49;3.70;;;3.20;;
7150;SDS011;3617;48.836;9.172;2022-12-07T11:41:43;4.80;;;3.50;;
7150;SDS011;3617;48.836;9.172;2022-12-07T11:44:23;7.27;;;4.40;;
7150;SDS011;3617;48.836;9.172;2022-12-07T11:46:59;6.97;;;4.37;;
7150;SDS011;3617;48.836;9.172;2022-12-07T11:49:37;6.27;;;4.00;;
7150;SDS011;3617;48.836;9.172;2022-12-07T11:52:06;6.97;;;3.90;;
7150;SDS011;3617;48.836;9.172;2022-12-07T11:54:40;8.07;;;5.00;;
7150;SDS011;3617;48.836;9.172;2022-12-07T11:57:09;7.77;;;4.40;;
7150;SDS011;3617;48.836;9.172;2022-12-07T11:59:39;5.63;;;4.07;;
7150;SDS011;3617;48.836;9.172;2022-12-07T12:02:13;6.00;;;4.30;;
7150;SDS011;3617;48.836;9.172;2022-12-07T12:07:10;6.43;;;4.20;;
7150;SDS011;3617;48.836;9.172;2022-12-07T12:12:31;6.90;;;4.27;;
7150;SDS011;3617;48.836;9.172;2022-12-07T12:15:20;7.17;;;4.67;;
7150;SDS011;3617;48.836;9.172;2022-12-07T12:18:01;8.20;;;4.43;;
7150;SDS011;3617;48.836;9.172;2022-12-07T12:20:31;6.67;;;4.20;;
7150;SDS011;3617;48.836;9.172;2022-12-07T12:23:05;7.97;;;4.50;;
7150;SDS011;3617;48.836;9.172;2022-12-07T12:25:35;6.10;;;4.17;;
7150;SDS011;3617;48.836;9.172;2022-12-07T12:28:03;7.30;;;4.67;;
7150;SDS011;3617;48.836;9.172;2022-12-07T12:33:01;7.00;;;4.57;;
7150;SDS011;3617;48.836;9.172;2022-12-07T12:35:29;6.60;;;4.17;;
7150;SDS011;3617;48.836;9.172;2022-12-07T12:37:57;6.03;;;4.23;;
7150;SDS011;3617;48.836;9.172;2022-12-07T12:40:41;8.90;;;4.20;;
7150;SDS011;3617;48.836;9.172;2022-12-07T12:43:39;8.50;;;4.50;;
7150;SDS011;3617;48.836;9.172;2022-12-07T12:46:45;6.37;;;4.90;;
7150;SDS011;3617;48.836;9.172;2022-12-07T12:48:40;6.13;;;4.27;;
7150;SDS011;3617;48.836;9.172;2022-12-07T12:53:51;7.30;;;4.70;;
7150;SDS011;3617;48.836;9.172;2022-12-07T12:56:39;7.50;;;4.43;;
7150;SDS011;3617;48.836;9.172;2022-12-07T12:59:23;6.57;;;4.40;;
7150;SDS011;3617;48.836;9.172;2022-12-07T13:01:50;6.23;;;4.17;;
7150;SDS011;3617;48.836;9.172;2022-12-07T13:04:17;6.20;;;4.50;;
7150;SDS011;3617;48.836;9.172;2022-12-07T13:06:44;7.50;;;4.87;;
7150;SDS011;3617;48.836;9.172;2022-12-07T13:09:17;6.60;;;4.20;;
7150;SDS011;3617;48.836;9.172;2022-12-07T13:11:44;7.07;;;4.90;;
7150;SDS011;3617;48.836;9.172;2022-12-07T13:16:56;6.47;;;4.47;;
7150;SDS011;3617;48.836;9.172;2022-12-07T13:24:54;6.77;;;4.80;;
7150;SDS011;3617;48.836;9.172;2022-12-07T13:27:21;7.37;;;4.90;;
7150;SDS011;3617;48.836;9.172;2022-12-07T13:29:47;6.80;;;4.60;;
7150;SDS011;3617;48.836;9.172;2022-12-07T13:32:26;8.20;;;5.03;;
7150;SDS011;3617;48.836;9.172;2022-12-07T13:34:52;9.77;;;4.83;;
7150;SDS011;3617;48.836;9.172;2022-12-07T13:37:28;7.13;;;5.20;;
7150;SDS011;3617;48.836;9.172;2022-12-07T13:40:17;8.83;;;4.90;;
7150;SDS011;3617;48.836;9.172;2022-12-07T13:42:44;8.20;;;4.97;;
7150;SDS011;3617;48.836;9.172;2022-12-07T13:45:23;10.00;;;5.93;;
7150;SDS011;3617;48.836;9.172;2022-12-07T13:50:41;9.33;;;5.17;;
7150;SDS011;3617;48.836;9.172;2022-12-07T13:53:11;8.60;;;5.50;;
7150;SDS011;3617;48.836;9.172;2022-12-07T13:55:38;8.60;;;4.73;;
7150;SDS011;3617;48.836;9.172;2022-12-07T13:58:09;11.93;;;6.33;;
7150;SDS011;3617;48.836;9.172;2022-12-07T14:00:35;9.03;;;5.47;;
7150;SDS011;3617;48.836;9.172;2022-12-07T14:05:28;8.83;;;5.70;;
7150;SDS011;3617;48.836;9.172;2022-12-07T14:10:21;11.17;;;5.33;;
7150;SDS011;3617;48.836;9.172;2022-12-07T14:12:47;11.93;;;6.80;;
7150;SDS011;3617;48.836;9.172;2022-12-07T14:15:21;15.40;;;6.57;;
7150;SDS011;3617;48.836;9.172;2022-12-07T14:17:51;11.70;;;6.37;;
7150;SDS011;3617;48.836;9.172;2022-12-07T14:20:33;8.23;;;5.30;;
7150;SDS011;3617;48.836;9.172;2022-12-07T14:23:00;12.30;;;6.00;;
7150;SDS011;3617;48.836;9.172;2022-12-07T14:25:34;9.53;;;6.07;;
7150;SDS011;3617;48.836;9.172;2022-12-07T14:28:10;9.37;;;5.80;;
7150;SDS011;3617;48.836;9.172;2022-12-07T14:30:50;9.63;;;5.77;;
7150;SDS011;3617;48.836;9.172;2022-12-07T14:33:16;10.03;;;5.80;;
7150;SDS011;3617;48.836;9.172;2022-12-07T14:35:42;9.27;;;5.63;;
7150;SDS011;3617;48.836;9.172;2022-12-07T14:38:08;10.40;;;5.50;;
7150;SDS011;3617;48.836;9.172;2022-12-07T14:40:34;10.23;;;5.70;;
7150;SDS011;3617;48.836;9.172;2022-12-07T14:43:01;9.30;;;5.67;;
7150;SDS011;3617;48.836;9.172;2022-12-07T14:45:28;10.33;;;5.30;;
7150;SDS011;3617;48.836;9.172;2022-12-07T14:47:54;7.70;;;5.50;;
7150;SDS011;3617;48.836;9.172;2022-12-07T14:50:20;7.97;;;5.33;;
7150;SDS011;3617;48.836;9.172;2022-12-07T14:52:58;9.17;;;5.93;;
7150;SDS011;3617;48.836;9.172;2022-12-07T14:55:25;10.23;;;5.70;;
7150;SDS011;3617;48.836;9.172;2022-12-07T14:57:52;9.37;;;6.10;;
7150;SDS011;3617;48.836;9.172;2022-12-07T15:00:19;9.77;;;5.80;;
7150;SDS011;3617;48.836;9.172;2022-12-07T15:02:45;10.57;;;6.20;;
7150;SDS011;3617;48.836;9.172;2022-12-07T15:05:12;11.40;;;6.23;;
7150;SDS011;3617;48.836;9.172;2022-12-07T15:07:38;11.83;;;6.53;;
7150;SDS011;3617;48.836;9.172;2022-12-07T15:10:05;12.93;;;6.40;;
7150;SDS011;3617;48.836;9.172;2022-12-07T15:12:31;9.23;;;5.30;;
7150;SDS011;3617;48.836;9.172;2022-12-07T15:14:57;8.27;;;5.07;;
7150;SDS011;3617;48.836;9.172;2022-12-07T15:17:23;11.97;;;6.90;;
7150;SDS011;3617;48.836;9.172;2022-12-07T15:19:49;9.30;;;5.50;;
7150;SDS011;3617;48.836;9.172;2022-12-07T15:22:15;10.30;;;6.13;;
7150;SDS011;3617;48.836;9.172;2022-12-07T15:24:41;13.93;;;7.33;;
7150;SDS011;3617;48.836;9.172;2022-12-07T15:27:07;10.13;;;6.50;;
7150;SDS011;3617;48.836;9.172;2022-12-07T15:29:33;10.33;;;6.30;;
7150;SDS011;3617;48.836;9.172;2022-12-07T15:31:59;9.67;;;6.30;;
7150;SDS011;3617;48.836;9.172;2022-12-07T15:34:25;9.60;;;6.40;;
7150;SDS011;3617;48.836;9.172;2022-12-07T15:36:53;10.67;;;6.37;;
7150;SDS011;3617;48.836;9.172;2022-12-07T15:39:19;11.17;;;6.67;;
7150;SDS011;3617;48.836;9.172;2022-12-07T15:41:46;12.50;;;6.53;;
7150;SDS011;3617;48.836;9.172;2022-12-07T15:44:12;10.43;;;6.77;;
7150;SDS011;3617;48.836;9.172;2022-12-07T15:46:57;12.43;;;6.50;;
7150;SDS011;3617;48.836;9.172;2022-12-07T15:49:23;9.73;;;6.80;;
7150;SDS011;3617;48.836;9.172;2022-12-07T15:51:49;12.40;;;6.80;;
7150;SDS011;3617;48.836;9.172;2022-12-07T15:54:18;10.30;;;5.87;;
7150;SDS011;3617;48.836;9.172;2022-12-07T15:56:44;10.23;;;6.80;;
7150;SDS011;3617;48.836;9.172;2022-12-07T15:59:10;10.50;;;6.20;;
7150;SDS011;3617;48.836;9.172;2022-12-07T16:01:36;10.40;;;6.43;;
7150;SDS011;3617;48.836;9.172;2022-12-07T16:04:02;8.97;;;5.80;;
7150;SDS011;3617;48.836;9.172;2022-12-07T16:06:28;10.67;;;6.33;;
7150;SDS011;3617;48.836;9.172;2022-12-07T16:08:54;13.50;;;7.43;;
7150;SDS011;3617;48.836;9.172;2022-12-07T16:11:21;11.70;;;6.83;;
7150;SDS011;3617;48.836;9.172;2022-12-07T16:13:47;11.60;;;6.90;;
7150;SDS011;3617;48.836;9.172;2022-12-07T16:16:14;11.47;;;6.53;;
7150;SDS011;3617;48.836;9.172;2022-12-07T16:18:41;10.60;;;6.87;;
7150;SDS011;3617;48.836;9.172;2022-12-07T16:21:07;12.47;;;6.90;;
7150;SDS011;3617;48.836;9.172;2022-12-07T16:23:33;11.83;;;7.20;;
7150;SDS011;3617;48.836;9.172;2022-12-07T16:28:31;13.97;;;7.37;;
7150;SDS011;3617;48.836;9.172;2022-12-07T16:31:08;13.10;;;7.70;;
7150;SDS011;3617;48.836;9.172;2022-12-07T16:33:35;12.77;;;7.77;;
7150;SDS011;3617;48.836;9.172;2022-12-07T16:36:01;12.67;;;7.10;;
7150;SDS011;3617;48.836;9.172;2022-12-07T16:38:27;12.73;;;7.30;;
7150;SDS011;3617;48.836;9.172;2022-12-07T16:40:53;13.57;;;7.33;;
7150;SDS011;3617;48.836;9.172;2022-12-07T16:43:19;12.40;;;7.33;;
7150;SDS011;3617;48.836;9.172;2022-12-07T16:45:46;14.00;;;7.83;;
7150;SDS011;3617;48.836;9.172;2022-12-07T16:48:12;14.77;;;8.03;;
7150;SDS011;3617;48.836;9.172;2022-12-07T16:50:39;18.20;;;8.67;;
7150;SDS011;3617;48.836;9.172;2022-12-07T16:53:06;23.50;;;11.03;;
7150;SDS011;3617;48.836;9.172;2022-12-07T16:55:34;27.10;;;14.30;;
7150;SDS011;3617;48.836;9.172;2022-12-07T16:58:00;22.50;;;11.77;;
7150;SDS011;3617;48.836;9.172;2022-12-07T17:00:26;16.83;;;10.47;;
7150;SDS011;3617;48.836;9.172;2022-12-07T17:02:52;13.27;;;9.33;;
7150;SDS011;3617;48.836;9.172;2022-12-07T17:05:20;14.67;;;8.60;;